createdAt,value
2018-06-21T00:00:33.180Z,20.33
2018-06-21T00:03:02.613Z,20.35
2018-06-21T00:05:31.909Z,20.34
2018-06-21T00:08:00.890Z,20.37
2018-06-21T00:10:30.045Z,20.35
2018-06-21T00:12:59.045Z,20.37
2018-06-21T00:15:28.076Z,20.36
2018-06-21T00:17:57.139Z,20.36
2018-06-21T00:20:26.234Z,20.35
2018-06-21T00:22:56.012Z,20.38
2018-06-21T00:25:25.169Z,20.40
2018-06-21T00:27:54.426Z,20.39
2018-06-21T00:30:23.468Z,20.40
2018-06-21T00:32:53.637Z,20.45
2018-06-21T00:35:23.071Z,20.43
2018-06-21T00:37:52.458Z,20.43
2018-06-21T00:40:21.840Z,20.41
2018-06-21T00:42:51.319Z,20.48
2018-06-21T00:45:20.575Z,20.49
2018-06-21T00:47:50.054Z,20.50
2018-06-21T00:50:19.686Z,20.46
2018-06-21T00:52:48.783Z,20.52
2018-06-21T00:55:27.356Z,20.56
2018-06-21T00:57:56.780Z,20.55
2018-06-21T01:00:25.727Z,20.52
2018-06-21T01:02:54.937Z,20.52
2018-06-21T01:05:24.284Z,20.52
2018-06-21T01:07:53.352Z,20.48
2018-06-21T01:10:23.040Z,20.46
2018-06-21T01:12:52.381Z,20.43
2018-06-21T01:15:21.543Z,20.38
2018-06-21T01:17:50.961Z,20.34
2018-06-21T01:20:20.659Z,20.26
2018-06-21T01:22:49.780Z,20.22
2018-06-21T01:25:19.833Z,20.25
2018-06-21T01:27:48.944Z,20.17
2018-06-21T01:30:18.013Z,20.14
2018-06-21T01:32:47.368Z,20.13
2018-06-21T01:35:16.713Z,20.07
2018-06-21T01:37:45.776Z,20.06
2018-06-21T01:40:16.139Z,20.01
2018-06-21T01:42:45.453Z,20.01
2018-06-21T01:45:14.958Z,19.99
2018-06-21T01:47:47.068Z,19.98
2018-06-21T01:50:16.583Z,19.97
2018-06-21T01:52:45.763Z,19.95
2018-06-21T01:55:14.822Z,19.93
2018-06-21T01:57:43.826Z,19.97
2018-06-21T02:00:13.281Z,19.99
2018-06-21T02:02:42.473Z,20.05
2018-06-21T02:05:11.580Z,20.02
2018-06-21T02:07:40.576Z,20.03
2018-06-21T02:10:09.856Z,20.01
2018-06-21T02:12:39.175Z,20.01
2018-06-21T02:15:08.656Z,20.06
2018-06-21T02:17:38.027Z,20.07
2018-06-21T02:20:07.633Z,20.09
2018-06-21T02:22:37.106Z,20.06
2018-06-21T02:25:06.708Z,20.00
2018-06-21T02:27:35.932Z,19.93
2018-06-21T02:30:05.615Z,19.82
2018-06-21T02:32:34.746Z,19.90
2018-06-21T02:35:03.893Z,19.91
2018-06-21T02:37:33.125Z,19.95
2018-06-21T02:40:02.520Z,20.02
2018-06-21T02:42:31.762Z,19.95
2018-06-21T02:45:01.916Z,19.97
2018-06-21T02:47:31.540Z,19.98
2018-06-21T02:50:00.789Z,20.04
2018-06-21T02:52:29.879Z,20.15
2018-06-21T02:54:59.024Z,20.26
2018-06-21T02:57:28.154Z,20.27
2018-06-21T02:59:57.457Z,20.34
2018-06-21T03:02:26.499Z,20.38
2018-06-21T03:04:55.717Z,20.43
2018-06-21T03:07:25.129Z,20.45
2018-06-21T03:09:54.429Z,20.52
2018-06-21T03:12:24.493Z,20.45
2018-06-21T03:14:54.748Z,20.36
2018-06-21T03:17:24.173Z,20.28
2018-06-21T03:19:53.435Z,20.27
2018-06-21T03:22:22.744Z,20.28
2018-06-21T03:24:51.836Z,20.30
2018-06-21T03:27:21.076Z,20.30
2018-06-21T03:29:50.093Z,20.26
2018-06-21T03:32:20.032Z,20.30
2018-06-21T03:34:49.779Z,20.37
2018-06-21T03:37:18.873Z,20.40
2018-06-21T03:39:47.918Z,20.40
2018-06-21T03:42:17.003Z,20.44
2018-06-21T03:44:46.029Z,20.46
2018-06-21T03:47:15.348Z,20.49
2018-06-21T03:49:44.351Z,20.58
2018-06-21T03:52:13.479Z,20.68
2018-06-21T03:54:42.899Z,20.76
2018-06-21T03:57:12.196Z,20.81
2018-06-21T03:59:41.570Z,20.89
2018-06-21T04:02:10.706Z,20.89
2018-06-21T04:04:39.704Z,20.88
2018-06-21T04:07:08.681Z,20.78
2018-06-21T04:09:37.720Z,20.78
2018-06-21T04:12:06.712Z,20.76
2018-06-21T04:14:35.863Z,20.72
2018-06-21T04:17:04.911Z,20.72
2018-06-21T04:19:33.891Z,20.72
2018-06-21T04:22:03.126Z,20.75
2018-06-21T04:24:32.119Z,20.79
2018-06-21T04:27:01.529Z,20.88
2018-06-21T04:29:30.729Z,20.93
2018-06-21T04:31:59.688Z,20.98
2018-06-21T04:34:28.865Z,21.09
2018-06-21T04:36:57.950Z,21.26
2018-06-21T04:39:27.504Z,21.24
2018-06-21T04:41:56.681Z,21.45
2018-06-21T04:44:26.151Z,21.55
2018-06-21T04:46:55.181Z,21.68
2018-06-21T04:49:24.380Z,21.82
2018-06-21T04:51:53.365Z,21.98
2018-06-21T04:54:22.355Z,22.07
2018-06-21T04:56:51.369Z,22.18
2018-06-21T04:59:20.516Z,22.26
2018-06-21T05:01:50.817Z,22.32
2018-06-21T05:04:19.940Z,22.33
2018-06-21T05:06:48.933Z,22.37
2018-06-21T05:09:17.907Z,22.41
2018-06-21T05:11:46.935Z,22.48
2018-06-21T05:14:15.952Z,22.52
2018-06-21T05:16:45.076Z,22.56
2018-06-21T05:19:14.145Z,22.63
2018-06-21T05:21:43.215Z,22.67
2018-06-21T05:24:12.480Z,22.85
2018-06-21T05:26:41.579Z,22.97
2018-06-21T05:29:11.977Z,23.06
2018-06-21T05:31:41.040Z,23.15
2018-06-21T05:34:10.057Z,23.31
2018-06-21T05:36:39.997Z,23.50
2018-06-21T05:39:11.171Z,23.75
2018-06-21T05:41:40.276Z,23.90
2018-06-21T05:44:09.683Z,24.03
2018-06-21T05:46:38.729Z,24.11
2018-06-21T05:49:07.788Z,24.20
2018-06-21T05:51:36.820Z,24.32
2018-06-21T05:54:05.941Z,24.44
2018-06-21T05:56:34.912Z,24.53
2018-06-21T05:59:03.948Z,24.64
2018-06-21T06:01:33.105Z,24.78
2018-06-21T06:04:02.075Z,24.91
2018-06-21T06:06:31.057Z,25.06
2018-06-21T06:09:00.085Z,25.18
2018-06-21T06:11:29.196Z,25.24
2018-06-21T06:13:58.191Z,25.32
2018-06-21T06:16:27.281Z,25.39
2018-06-21T06:18:56.265Z,25.50
2018-06-21T06:21:25.257Z,25.57
2018-06-21T06:23:54.439Z,25.65
2018-06-21T06:26:23.493Z,25.77
2018-06-21T06:28:52.760Z,25.94
2018-06-21T06:31:21.768Z,26.09
2018-06-21T06:33:51.162Z,26.20
2018-06-21T06:36:20.244Z,26.35
2018-06-21T06:38:49.320Z,26.49
2018-06-21T06:41:18.360Z,26.52
2018-06-21T06:43:47.383Z,26.60
2018-06-21T06:46:16.389Z,26.69
2018-06-21T06:48:46.340Z,26.76
2018-06-21T06:51:15.340Z,26.86
2018-06-21T06:53:44.395Z,26.98
2018-06-21T06:56:13.434Z,27.05
2018-06-21T06:58:42.495Z,27.13
2018-06-21T07:01:11.528Z,27.26
2018-06-21T07:03:40.495Z,27.41
2018-06-21T07:06:09.600Z,27.49
2018-06-21T07:08:38.772Z,27.63
2018-06-21T07:11:07.796Z,27.73
2018-06-21T07:13:36.751Z,27.79
2018-06-21T07:16:05.801Z,27.87
2018-06-21T07:18:34.823Z,27.85
2018-06-21T07:21:03.813Z,27.88
2018-06-21T07:23:32.770Z,28.05
2018-06-21T07:26:01.825Z,27.93
2018-06-21T07:28:30.853Z,27.84
2018-06-21T07:30:59.789Z,27.72
2018-06-21T07:33:28.871Z,27.76
2018-06-21T07:35:57.884Z,27.78
2018-06-21T07:38:27.032Z,27.81
2018-06-21T07:40:56.210Z,27.90
2018-06-21T07:43:25.254Z,28.05
2018-06-21T07:45:54.228Z,28.19
2018-06-21T07:48:23.233Z,28.30
2018-06-21T07:50:52.269Z,28.16
2018-06-21T07:53:21.344Z,28.11
2018-06-21T07:55:50.357Z,28.20
2018-06-21T07:58:19.824Z,28.40
2018-06-21T08:00:48.980Z,28.62
2018-06-21T08:03:17.957Z,28.82
2018-06-21T08:05:46.972Z,28.79
2018-06-21T08:08:16.033Z,28.95
2018-06-21T08:10:45.142Z,28.97
2018-06-21T08:13:14.376Z,29.20
2018-06-21T08:15:43.449Z,29.28
2018-06-21T08:18:12.451Z,29.42
2018-06-21T08:20:41.408Z,29.50
2018-06-21T08:23:10.532Z,29.66
2018-06-21T08:25:39.580Z,29.80
2018-06-21T08:28:08.847Z,29.92
2018-06-21T08:30:38.247Z,30.01
2018-06-21T08:33:07.300Z,30.00
2018-06-21T08:35:36.336Z,29.98
2018-06-21T08:38:05.402Z,29.96
2018-06-21T08:40:34.355Z,30.00
2018-06-21T08:43:03.379Z,30.25
2018-06-21T08:45:32.328Z,29.98
2018-06-21T08:48:01.382Z,29.64
2018-06-21T08:50:30.409Z,29.55
2018-06-21T08:52:59.378Z,29.73
2018-06-21T08:55:28.395Z,29.78
2018-06-21T08:57:57.425Z,29.68
2018-06-21T09:00:26.496Z,29.66
2018-06-21T09:02:55.488Z,29.95
2018-06-21T09:05:24.517Z,30.26
2018-06-21T09:07:53.584Z,30.62
2018-06-21T09:10:22.574Z,30.77
2018-06-21T09:12:51.552Z,30.90
2018-06-21T09:15:20.680Z,31.09
2018-06-21T09:17:49.764Z,31.13
2018-06-21T09:20:18.823Z,30.90
2018-06-21T09:22:47.791Z,30.93
2018-06-21T09:25:16.760Z,30.96
2018-06-21T09:27:45.754Z,30.93
2018-06-21T09:30:14.708Z,30.86
2018-06-21T09:32:43.720Z,30.99
2018-06-21T09:35:12.778Z,31.16
2018-06-21T09:37:46.718Z,31.49
2018-06-21T09:40:20.876Z,31.55
2018-06-21T09:42:54.940Z,31.38
2018-06-21T09:45:29.052Z,31.41
2018-06-21T09:48:02.990Z,31.28
2018-06-21T09:50:32.008Z,31.28
2018-06-21T09:53:01.103Z,31.33
2018-06-21T09:55:30.069Z,31.55
2018-06-21T09:57:59.105Z,31.36
2018-06-21T10:00:33.061Z,31.50
2018-06-21T10:03:02.047Z,31.79
2018-06-21T10:05:31.028Z,31.89
2018-06-21T10:07:59.993Z,31.70
2018-06-21T10:10:28.980Z,31.80
2018-06-21T10:12:58.304Z,31.67
2018-06-21T10:15:27.292Z,31.79
2018-06-21T10:17:59.580Z,31.97
2018-06-21T10:20:28.672Z,32.03
2018-06-21T10:22:57.706Z,32.00
2018-06-21T10:25:26.784Z,32.02
2018-06-21T10:27:55.774Z,32.02
2018-06-21T10:30:24.754Z,31.95
2018-06-21T10:32:54.065Z,31.93
2018-06-21T10:35:23.101Z,32.15
2018-06-21T10:37:52.054Z,32.36
2018-06-21T10:40:21.085Z,32.46
2018-06-21T10:42:50.034Z,32.28
2018-06-21T10:45:19.051Z,32.12
2018-06-21T10:47:48.331Z,31.94
2018-06-21T10:50:17.316Z,31.97
2018-06-21T10:52:46.332Z,32.10
2018-06-21T10:55:15.412Z,32.29
2018-06-21T10:57:44.363Z,32.36
2018-06-21T11:00:13.353Z,32.50
2018-06-21T11:02:42.373Z,32.60
2018-06-21T11:05:12.228Z,32.73
2018-06-21T11:07:41.394Z,32.70
2018-06-21T11:10:10.437Z,32.72
2018-06-21T11:12:39.456Z,32.83
2018-06-21T11:15:08.428Z,32.69
2018-06-21T11:17:37.434Z,32.65
2018-06-21T11:20:06.411Z,32.77
2018-06-21T11:22:35.368Z,32.89
2018-06-21T11:25:04.433Z,32.98
2018-06-21T11:27:33.419Z,33.00
2018-06-21T11:30:02.398Z,32.96
2018-06-21T11:32:31.412Z,32.98
2018-06-21T11:35:00.382Z,33.14
2018-06-21T11:37:29.412Z,33.24
2018-06-21T11:39:58.505Z,33.34
2018-06-21T11:42:27.525Z,33.39
2018-06-21T11:44:56.613Z,33.37
2018-06-21T11:47:25.628Z,33.34
2018-06-21T11:49:54.656Z,33.20
2018-06-21T11:52:23.738Z,33.21
2018-06-21T11:54:52.692Z,33.17
2018-06-21T11:57:21.669Z,33.08
2018-06-21T11:59:50.692Z,32.92
2018-06-21T12:02:19.798Z,32.87
2018-06-21T12:04:48.780Z,33.02
2018-06-21T12:07:17.796Z,33.19
2018-06-21T12:09:46.869Z,33.28
2018-06-21T12:12:15.824Z,33.42
2018-06-21T12:14:44.795Z,33.39
2018-06-21T12:17:13.920Z,33.34
2018-06-21T12:19:43.048Z,33.43
2018-06-21T12:22:12.077Z,33.42
2018-06-21T12:24:41.350Z,33.40
2018-06-21T12:27:10.339Z,33.41
2018-06-21T12:29:40.952Z,33.44
2018-06-21T12:32:17.850Z,33.42
2018-06-21T12:34:46.829Z,33.61
2018-06-21T12:37:16.138Z,33.82
2018-06-21T12:39:45.172Z,33.92
2018-06-21T12:42:14.216Z,33.95
2018-06-21T12:44:43.269Z,34.01
2018-06-21T12:47:12.267Z,34.04
2018-06-21T12:49:41.352Z,34.00
2018-06-21T12:52:10.403Z,33.98
2018-06-21T12:54:39.396Z,33.88
2018-06-21T12:57:08.425Z,33.76
2018-06-21T12:59:37.415Z,33.77
2018-06-21T13:02:06.473Z,33.85
2018-06-21T13:04:35.436Z,33.89
2018-06-21T13:07:04.491Z,33.73
2018-06-21T13:10:45.716Z,33.78
2018-06-21T13:13:21.769Z,34.00
2018-06-21T13:15:50.804Z,33.81
2018-06-21T13:18:19.787Z,33.75
2018-06-21T13:20:48.921Z,33.60
2018-06-21T13:23:17.901Z,33.50
2018-06-21T13:25:46.956Z,33.61
2018-06-21T13:28:16.000Z,33.69
2018-06-21T13:30:44.957Z,33.70
2018-06-21T13:33:13.960Z,33.78
2018-06-21T13:35:42.912Z,33.63
2018-06-21T13:38:11.974Z,33.58
2018-06-21T13:40:40.964Z,33.61
2018-06-21T13:43:10.388Z,33.49
2018-06-21T13:45:39.500Z,33.30
2018-06-21T13:48:08.484Z,33.08
2018-06-21T13:50:37.452Z,32.77
2018-06-21T13:53:06.476Z,31.75
2018-06-21T13:55:35.445Z,31.33
2018-06-21T13:58:05.131Z,30.66
2018-06-21T14:00:35.373Z,29.86
2018-06-21T14:03:04.548Z,29.41
2018-06-21T14:05:33.616Z,29.09
2018-06-21T14:08:02.857Z,29.05
2018-06-21T14:10:31.668Z,29.12
2018-06-21T14:13:00.762Z,29.19
2018-06-21T14:15:29.873Z,29.36
2018-06-21T14:17:58.841Z,29.50
2018-06-21T14:20:27.826Z,29.64
2018-06-21T14:22:56.865Z,29.64
2018-06-21T14:25:25.904Z,29.77
2018-06-21T14:27:54.879Z,29.64
2018-06-21T14:30:23.887Z,29.66
2018-06-21T14:32:52.896Z,29.63
2018-06-21T14:35:21.912Z,29.60
2018-06-21T14:37:50.868Z,29.58
2018-06-21T14:40:19.910Z,29.62
2018-06-21T14:42:48.955Z,29.82
2018-06-21T14:45:18.093Z,30.06
2018-06-21T14:47:47.233Z,30.10
2018-06-21T14:50:16.221Z,30.18
2018-06-21T14:52:47.688Z,30.05
2018-06-21T14:55:16.655Z,30.05
2018-06-21T14:57:45.776Z,29.88
2018-06-21T15:00:14.753Z,29.94
2018-06-21T15:02:43.755Z,30.09
2018-06-21T15:05:12.715Z,30.05
2018-06-21T15:07:41.776Z,29.97
2018-06-21T15:10:10.733Z,30.11
2018-06-21T15:12:39.788Z,30.12
2018-06-21T15:15:08.760Z,30.09
2018-06-21T15:17:37.812Z,30.09
2018-06-21T15:20:06.837Z,30.02
2018-06-21T15:22:35.875Z,29.88
2018-06-21T15:25:04.961Z,29.76
2018-06-21T15:27:34.010Z,29.63
2018-06-21T15:30:02.977Z,29.63
2018-06-21T15:32:31.944Z,29.77
2018-06-21T15:35:00.905Z,29.89
2018-06-21T15:37:29.985Z,30.02
2018-06-21T15:39:59.063Z,30.08
2018-06-21T15:42:28.143Z,29.98
2018-06-21T15:44:57.140Z,30.06
2018-06-21T15:47:26.172Z,30.21
2018-06-21T15:49:55.289Z,30.37
2018-06-21T15:52:24.352Z,30.62
2018-06-21T15:54:53.474Z,30.83
2018-06-21T15:57:22.593Z,30.94
2018-06-21T15:59:51.571Z,31.00
2018-06-21T16:02:20.525Z,31.02
2018-06-21T16:04:49.559Z,30.70
2018-06-21T16:07:18.628Z,30.56
2018-06-21T16:09:47.659Z,30.39
2018-06-21T16:12:16.671Z,30.26
2018-06-21T16:14:45.740Z,30.14
2018-06-21T16:17:14.756Z,29.91
2018-06-21T16:19:43.841Z,29.78
2018-06-21T16:22:12.858Z,29.60
2018-06-21T16:24:41.997Z,29.41
2018-06-21T16:27:11.028Z,29.25
2018-06-21T16:29:40.011Z,29.04
2018-06-21T16:32:08.968Z,28.86
2018-06-21T16:34:38.005Z,28.70
2018-06-21T16:37:07.020Z,28.51
2018-06-21T16:39:36.274Z,28.36
2018-06-21T16:42:05.320Z,28.19
2018-06-21T16:44:34.292Z,28.05
2018-06-21T16:47:03.294Z,27.90
2018-06-21T16:49:32.283Z,27.74
2018-06-21T16:52:01.236Z,27.61
2018-06-21T16:54:30.208Z,27.50
2018-06-21T16:56:59.239Z,27.39
2018-06-21T16:59:28.212Z,27.33
2018-06-21T17:01:57.193Z,27.22
2018-06-21T17:04:26.177Z,27.11
2018-06-21T17:06:55.238Z,27.07
2018-06-21T17:09:24.239Z,26.89
2018-06-21T17:11:53.284Z,26.80
2018-06-21T17:14:22.333Z,26.79
2018-06-21T17:16:51.378Z,26.64
2018-06-21T17:19:20.667Z,26.41
2018-06-21T17:21:49.928Z,26.16
2018-06-21T17:24:19.124Z,25.95
2018-06-21T17:26:48.389Z,25.83
2018-06-21T17:29:17.737Z,25.74
2018-06-21T17:31:47.046Z,25.63
2018-06-21T17:34:16.420Z,25.54
2018-06-21T17:36:45.574Z,25.46
2018-06-21T17:39:14.722Z,25.41
2018-06-21T17:41:43.980Z,25.28
2018-06-21T17:44:13.211Z,25.17
2018-06-21T17:46:42.368Z,25.01
2018-06-21T17:49:11.658Z,24.91
2018-06-21T17:51:41.025Z,24.85
2018-06-21T17:54:10.516Z,24.84
2018-06-21T17:56:40.113Z,24.83
2018-06-21T17:59:09.309Z,24.78
2018-06-21T18:01:38.884Z,24.72
2018-06-21T18:04:08.192Z,24.62
2018-06-21T18:06:37.355Z,24.53
2018-06-21T18:09:08.613Z,24.47
2018-06-21T18:11:37.834Z,24.39
2018-06-21T18:14:07.169Z,24.23
2018-06-21T18:16:36.531Z,24.22
2018-06-21T18:19:05.743Z,24.12
2018-06-21T18:21:35.030Z,24.00
2018-06-21T18:24:04.247Z,23.99
2018-06-21T18:26:33.400Z,23.95
2018-06-21T18:29:02.879Z,23.91
2018-06-21T18:31:32.075Z,23.77
2018-06-21T18:34:01.281Z,23.70
2018-06-21T18:36:30.524Z,23.64
2018-06-21T18:38:59.925Z,23.54
2018-06-21T18:41:29.368Z,23.35
2018-06-21T18:43:58.475Z,23.29
2018-06-21T18:46:27.719Z,23.20
2018-06-21T18:48:57.027Z,23.18
2018-06-21T18:51:26.271Z,23.24
2018-06-21T18:53:55.480Z,23.20
2018-06-21T18:56:24.812Z,23.16
2018-06-21T18:58:54.181Z,23.08
2018-06-21T19:01:23.340Z,23.01
2018-06-21T19:03:52.725Z,23.05
2018-06-21T19:06:26.824Z,23.07
2018-06-21T19:10:00.284Z,22.98
2018-06-21T19:12:29.591Z,22.94
2018-06-21T19:14:58.900Z,22.84
2018-06-21T19:17:28.237Z,22.76
2018-06-21T19:19:57.566Z,22.63
2018-06-21T19:22:26.888Z,22.53
2018-06-21T19:24:56.037Z,22.53
2018-06-21T19:27:25.271Z,22.50
2018-06-21T19:29:54.448Z,22.50
2018-06-21T19:32:23.692Z,22.49
2018-06-21T19:34:52.997Z,22.45
2018-06-21T19:37:22.240Z,22.39
2018-06-21T19:39:51.450Z,22.41
2018-06-21T19:42:20.688Z,22.43
2018-06-21T19:44:50.047Z,22.36
2018-06-21T19:47:19.397Z,22.31
2018-06-21T19:49:55.069Z,22.30
2018-06-21T19:52:24.387Z,22.30
2018-06-21T19:54:53.412Z,22.25
2018-06-21T19:57:22.920Z,22.25
2018-06-21T19:59:52.165Z,22.21
2018-06-21T20:02:21.512Z,22.17
2018-06-21T20:04:50.762Z,22.12
2018-06-21T20:07:20.043Z,22.13
2018-06-21T20:09:49.256Z,22.12
2018-06-21T20:12:18.224Z,22.09
2018-06-21T20:14:47.504Z,22.04
2018-06-21T20:17:16.749Z,22.03
2018-06-21T20:19:50.964Z,21.96
2018-06-21T20:22:20.270Z,21.84
2018-06-21T20:24:49.580Z,21.74
2018-06-21T20:27:18.908Z,21.63
2018-06-21T20:29:49.589Z,21.62
2018-06-21T20:32:19.632Z,21.51
2018-06-21T20:34:48.788Z,21.51
2018-06-21T20:37:18.205Z,21.48
2018-06-21T20:39:47.633Z,21.41
2018-06-21T20:42:16.873Z,21.37
2018-06-21T20:44:46.159Z,21.30
2018-06-21T20:47:15.418Z,21.32
2018-06-21T20:49:44.825Z,21.27
2018-06-21T20:52:19.087Z,21.21
2018-06-21T20:54:48.438Z,21.16
2018-06-21T20:57:18.068Z,21.19
2018-06-21T20:59:47.476Z,21.18
2018-06-21T21:02:16.937Z,21.15
2018-06-21T21:05:12.900Z,21.19
2018-06-21T21:07:42.463Z,21.11
2018-06-21T21:10:14.936Z,21.07
2018-06-21T21:12:44.452Z,21.04
2018-06-21T21:15:14.337Z,21.00
2018-06-21T21:17:43.794Z,21.01
2018-06-21T21:20:13.314Z,20.98
2018-06-21T21:22:42.926Z,20.89
2018-06-21T21:25:12.206Z,20.79
2018-06-21T21:27:42.047Z,20.77
2018-06-21T21:30:12.335Z,20.80
2018-06-21T21:32:41.608Z,20.79
2018-06-21T21:35:10.847Z,20.75
2018-06-21T21:37:40.204Z,20.74
2018-06-21T21:40:09.508Z,20.74
2018-06-21T21:42:39.207Z,20.74
2018-06-21T21:45:08.748Z,20.70
2018-06-21T21:47:38.204Z,20.68
2018-06-21T21:50:07.589Z,20.59
2018-06-21T21:52:36.868Z,20.56
2018-06-21T21:55:06.184Z,20.52
2018-06-21T21:57:35.556Z,20.44
2018-06-21T22:00:05.525Z,20.36
2018-06-21T22:02:34.901Z,20.42
2018-06-21T22:05:04.123Z,20.46
2018-06-21T22:07:33.524Z,20.45
2018-06-21T22:10:02.768Z,20.42
2018-06-21T22:12:31.926Z,20.43
2018-06-21T22:15:01.157Z,20.43
2018-06-21T22:17:30.509Z,20.44
2018-06-21T22:19:59.765Z,20.37
2018-06-21T22:22:29.001Z,20.32
2018-06-21T22:24:58.208Z,20.32
2018-06-21T22:27:27.451Z,20.32
2018-06-21T22:29:56.528Z,20.31
2018-06-21T22:32:25.796Z,20.26
2018-06-21T22:34:55.005Z,20.17
2018-06-21T22:37:24.308Z,20.14
2018-06-21T22:39:53.623Z,20.07
2018-06-21T22:42:22.868Z,20.02
2018-06-21T22:44:52.163Z,19.99
2018-06-21T22:47:21.332Z,19.96
2018-06-21T22:49:50.544Z,19.98
2018-06-21T22:52:19.783Z,19.97
2018-06-21T22:54:48.999Z,19.94
2018-06-21T22:57:18.020Z,19.93
2018-06-21T22:59:47.422Z,19.98
2018-06-21T23:02:17.208Z,19.99
2018-06-21T23:04:46.475Z,20.00
2018-06-21T23:07:15.805Z,19.93
2018-06-21T23:09:45.206Z,19.90
2018-06-21T23:12:14.557Z,19.91
2018-06-21T23:14:43.958Z,19.87
2018-06-21T23:17:13.209Z,19.87
2018-06-21T23:19:42.539Z,19.86
2018-06-21T23:22:11.756Z,19.89
2018-06-21T23:24:40.994Z,19.91
2018-06-21T23:27:10.261Z,19.87
2018-06-21T23:29:39.692Z,19.77
2018-06-21T23:32:09.004Z,19.81
2018-06-21T23:34:37.980Z,19.74
2018-06-21T23:37:07.196Z,19.60
2018-06-21T23:39:36.559Z,19.50
2018-06-21T23:42:05.529Z,19.53
2018-06-21T23:44:34.481Z,19.55
2018-06-21T23:47:03.576Z,19.59
2018-06-21T23:49:32.589Z,19.07
2018-06-21T23:52:01.641Z,19.57
2018-06-21T23:54:30.659Z,19.58
2018-06-21T23:56:59.627Z,19.60
2018-06-21T23:59:28.869Z,19.52
